Air Navigation Services of Czech Republic  
Last data update:  17.10.2018 17:52:06 UTC Česká verze
   METEO Page displayed:  17.10.2018 17:52:32 UTC  
help
METAR EDDB 171720Z 11004KT CAVOK 14/10 Q1019 NOSIG=
METAR EDDC 171720Z VRB01KT CAVOK 16/09 Q1019 NOSIG=
METAR EDDE 171720Z 09002KT CAVOK 17/11 Q1019 NOSIG=
METAR EDDF 171720Z 01003KT CAVOK 17/10 Q1018 NOSIG=
METAR EDDM 171720Z 04003KT CAVOK 12/09 Q1018 NOSIG=
METAR EDDN 171720Z 01002KT CAVOK 14/09 Q1018 NOSIG=
METAR EDDP 171720Z 08004KT CAVOK 15/09 Q1019 NOSIG=
METAR EDDT 171720Z 00000KT CAVOK 14/10 Q1019 NOSIG=
METAR EDQM 171720Z 01002KT CAVOK 14/06 Q1019=
METAR EPBY 171730Z 11002KT CAVOK 14/08 Q1020 =
METAR EPGD 171730Z 12006KT CAVOK 14/09 Q1021 =
METAR EPKK 171730Z 05003KT CAVOK 16/08 Q1021 =
METAR EPKT 171730Z VRB02KT CAVOK 13/10 Q1021 =
METAR EPLL 171730Z 09003KT CAVOK 14/09 Q1021 =
METAR EPPO 171730Z 03003KT 8000 NSC 13/08 Q1020 =
METAR EPRZ 171730Z 06004KT CAVOK 14/05 Q1021 =
METAR EPWA 171730Z VRB02KT CAVOK 12/07 Q1021 NOSIG=
METAR EPWR 171730Z 14007KT CAVOK 14/06 Q1019 =
METAR LHBP 171730Z 05005KT 360V090 CAVOK 14/07 Q1020 NOSIG=
METAR LHSM NIL
METAR LKBC 171730Z AUTO 09003KT CAVOK 11/09 Q1018=
METAR LKCV 171700Z 11003KT CAVOK 16/09 Q1019 NOSIG RMK BLU BLU=
METAR LKKB 171700Z 02001KT CAVOK 13/08 Q1019 NOSIG RMK BLU BLU=
METAR LKKU NIL
METAR LKKV 171730Z 11003KT CAVOK 11/08 Q1019 RMK REG QNH 1017 =
METAR LKLN 171730Z AUTO VRB02KT CAVOK 13/08 Q1019=
METAR LKMT 171730Z 13001KT CAVOK 14/11 Q1021 NOSIG RMK REG QNH 1017=
METAR LKNA 171700Z 12005KT 090V150 CAVOK 14/09 Q1020 NOSIG RMK BLU BLU=
METAR LKPD 171700Z 14005KT CAVOK 17/08 Q1019 RMK BLACK=
METAR LKPR 171730Z 07003KT CAVOK 14/08 Q1019 NOSIG RMK REG QNH 1017=
METAR LKTB 171730Z 06005KT CAVOK 16/08 Q1020 NOSIG RMK REG QNH 1017=
METAR LKVO NIL
METAR LOWI 171720Z VRB01KT 9999 FEW090 13/07 Q1018 NOSIG=
METAR LOWL 171720Z AUTO 08004KT 9999 NSC 15/09 Q1018 NOSIG=
METAR LOWS 171720Z VRB02KT CAVOK 13/09 Q1018 NOSIG=
METAR LOWW 171720Z 13003KT 090V160 CAVOK 16/11 Q1019 NOSIG=
METAR LZIB 171730Z 02005KT CAVOK 16/10 Q1020 NOSIG=
METAR LZKZ 171730Z VRB01KT CAVOK 14/04 Q1021=
METAR LZMC 171700Z VRB02KT CAVOK 17/08 Q1020=
METAR LZPP 171730Z 01004KT CAVOK 16/08 Q1020=
METAR LZSL 171730Z 03001KT CAVOK 15/06 Q1021=
METAR LZTT 171730Z 30004KT CAVOK 09/06 Q1022=
METAR LZZI 171730Z VRB01KT CAVOK 13/09 Q1021=